createdAt,value
2018-05-10T00:00:31.295Z,14.90
2018-05-10T00:01:10.800Z,14.98
2018-05-10T00:05:36.547Z,14.90
2018-05-10T00:06:13.614Z,14.78
2018-05-10T00:07:13.615Z,14.63
2018-05-10T00:09:45.370Z,14.57
2018-05-10T00:10:45.377Z,14.56
2018-05-10T00:11:45.378Z,14.45
2018-05-10T00:14:17.635Z,14.31
2018-05-10T00:15:17.642Z,14.35
2018-05-10T00:16:17.643Z,14.34
2018-05-10T00:17:19.071Z,14.20
2018-05-10T00:18:18.139Z,14.16
2018-05-10T00:19:18.141Z,14.23
2018-05-10T00:20:18.146Z,14.16
2018-05-10T00:21:18.638Z,14.19
2018-05-10T00:22:42.571Z,14.16
2018-05-10T00:23:18.639Z,14.17
2018-05-10T00:24:18.650Z,14.11
2018-05-10T00:25:19.142Z,14.12
2018-05-10T00:26:19.138Z,14.11
2018-05-10T00:27:19.135Z,14.09
2018-05-10T00:28:40.142Z,14.12
2018-05-10T00:29:19.645Z,14.17
2018-05-10T00:30:19.637Z,14.23
2018-05-10T00:31:19.638Z,14.19
2018-05-10T00:32:19.639Z,14.11
2018-05-10T00:33:41.174Z,14.16
2018-05-10T00:34:20.137Z,14.06
2018-05-10T00:35:20.139Z,14.06
2018-05-10T00:36:20.148Z,14.08
2018-05-10T00:37:20.638Z,13.99
2018-05-10T00:38:20.638Z,13.90
2018-05-10T00:39:20.664Z,13.84
2018-05-10T00:40:20.647Z,13.79
2018-05-10T00:41:21.144Z,13.81
2018-05-10T00:42:21.138Z,13.76
2018-05-10T00:43:21.138Z,13.72
2018-05-10T00:44:21.148Z,13.68
2018-05-10T00:48:24.328Z,13.65
2018-05-10T00:49:24.330Z,13.53
2018-05-10T00:50:24.339Z,13.65
2018-05-10T00:51:24.832Z,13.59
2018-05-10T00:52:24.832Z,13.63
2018-05-10T00:53:24.837Z,13.62
2018-05-10T00:54:24.841Z,13.63
2018-05-10T00:55:25.332Z,13.68
2018-05-10T00:57:56.709Z,13.73
2018-05-10T00:59:17.717Z,13.79
2018-05-10T00:59:56.727Z,13.73
2018-05-10T01:00:56.333Z,13.73
2018-05-10T01:02:18.220Z,13.71
2018-05-10T01:03:18.217Z,13.73
2018-05-10T01:03:56.712Z,13.68
2018-05-10T01:04:57.787Z,13.76
2018-05-10T01:05:59.719Z,13.73
2018-05-10T01:07:18.729Z,13.71
2018-05-10T01:08:18.716Z,13.72
2018-05-10T01:09:19.221Z,13.76
2018-05-10T01:09:58.215Z,13.69
2018-05-10T01:11:19.216Z,13.63
2018-05-10T01:12:20.254Z,13.62
2018-05-10T01:12:59.722Z,13.65
2018-05-10T01:13:58.713Z,13.65
2018-05-10T01:15:19.716Z,13.65
2018-05-10T01:15:58.719Z,13.57
2018-05-10T01:18:30.468Z,13.61
2018-05-10T01:19:30.475Z,13.53
2018-05-10T01:20:52.408Z,13.59
2018-05-10T01:23:04.208Z,13.53
2018-05-10T01:24:23.217Z,13.48
2018-05-10T01:25:03.658Z,13.44
2018-05-10T01:27:33.927Z,13.43
2018-05-10T01:28:54.920Z,13.43
2018-05-10T01:29:33.942Z,13.36
2018-05-10T01:30:56.347Z,13.31
2018-05-10T01:33:05.782Z,13.24
2018-05-10T01:34:26.786Z,13.27
2018-05-10T01:35:05.788Z,13.21
2018-05-10T01:36:06.287Z,13.29
2018-05-10T01:37:29.719Z,13.24
2018-05-10T01:38:27.289Z,13.22
2018-05-10T01:39:06.287Z,13.14
2018-05-10T01:41:59.043Z,13.07
2018-05-10T01:44:09.540Z,13.12
2018-05-10T01:45:09.546Z,13.01
2018-05-10T01:46:09.546Z,13.01
2018-05-10T01:50:12.710Z,12.95
2018-05-10T01:51:33.716Z,12.88
2018-05-10T01:52:12.716Z,12.88
2018-05-10T01:55:05.455Z,12.91
2018-05-10T01:55:44.475Z,12.84
2018-05-10T01:56:44.473Z,12.96
2018-05-10T01:57:44.966Z,12.87
2018-05-10T01:58:44.968Z,12.89
2018-05-10T01:59:44.970Z,12.95
2018-05-10T02:02:16.627Z,12.81
2018-05-10T02:03:16.636Z,12.87
2018-05-10T02:04:17.621Z,12.76
2018-05-10T02:05:17.124Z,12.84
2018-05-10T02:06:17.125Z,12.94
2018-05-10T02:07:17.124Z,12.87
2018-05-10T02:08:17.126Z,12.94
2018-05-10T02:09:17.633Z,12.85
2018-05-10T02:10:19.624Z,12.85
2018-05-10T02:11:17.624Z,12.89
2018-05-10T02:12:17.624Z,12.88
2018-05-10T02:13:18.128Z,12.81
2018-05-10T02:14:18.127Z,12.81
2018-05-10T02:15:18.124Z,12.81
2018-05-10T02:16:18.124Z,12.77
2018-05-10T02:17:18.625Z,12.84
2018-05-10T02:18:18.622Z,12.76
2018-05-10T02:19:18.625Z,12.77
2018-05-10T02:20:18.636Z,12.79
2018-05-10T02:22:50.362Z,12.88
2018-05-10T02:23:50.369Z,12.79
2018-05-10T02:24:50.373Z,12.84
2018-05-10T02:25:52.808Z,12.84
2018-05-10T02:26:50.870Z,12.70
2018-05-10T02:27:50.869Z,12.76
2018-05-10T02:28:50.869Z,12.71
2018-05-10T02:29:50.942Z,12.69
2018-05-10T02:30:51.370Z,12.74
2018-05-10T02:31:51.377Z,12.66
2018-05-10T02:32:51.372Z,12.58
2018-05-10T02:33:51.441Z,12.58
2018-05-10T02:34:51.874Z,12.49
2018-05-10T02:35:51.869Z,12.49
2018-05-10T02:36:51.866Z,12.46
2018-05-10T02:37:51.868Z,12.48
2018-05-10T02:41:55.346Z,12.48
2018-05-10T02:42:55.355Z,12.40
2018-05-10T02:43:54.822Z,12.43
2018-05-10T02:45:18.854Z,12.30
2018-05-10T02:45:55.854Z,12.34
2018-05-10T02:47:09.854Z,12.41
2018-05-10T02:47:55.861Z,12.40
2018-05-10T02:49:18.795Z,12.44
2018-05-10T02:50:23.355Z,12.41
2018-05-10T02:50:56.352Z,12.38
2018-05-10T02:52:02.354Z,12.37
2018-05-10T02:52:56.350Z,12.23
2018-05-10T02:53:58.853Z,12.22
2018-05-10T02:54:56.860Z,12.16
2018-05-10T02:55:56.854Z,12.04
2018-05-10T02:57:17.853Z,12.12
2018-05-10T02:59:28.608Z,11.98
2018-05-10T03:00:49.621Z,12.07
2018-05-10T03:01:28.093Z,12.12
2018-05-10T03:02:28.203Z,12.07
2018-05-10T03:03:29.116Z,12.13
2018-05-10T03:04:29.114Z,12.12
2018-05-10T03:05:29.112Z,12.25
2018-05-10T03:06:30.613Z,12.15
2018-05-10T03:07:52.621Z,12.23
2018-05-10T03:08:29.615Z,12.21
2018-05-10T03:09:29.615Z,12.22
2018-05-10T03:10:57.114Z,12.25
2018-05-10T03:11:30.119Z,12.29
2018-05-10T03:12:30.114Z,12.29
2018-05-10T03:13:30.209Z,12.22
2018-05-10T03:14:30.614Z,12.21
2018-05-10T03:15:31.552Z,12.21
2018-05-10T03:16:30.613Z,12.25
2018-05-10T03:17:30.615Z,12.26
2018-05-10T03:18:30.617Z,12.25
2018-05-10T03:19:31.113Z,12.23
2018-05-10T03:20:53.545Z,12.21
2018-05-10T03:21:31.115Z,12.22
2018-05-10T03:22:32.570Z,12.21
2018-05-10T03:23:31.613Z,12.13
2018-05-10T03:24:53.591Z,12.18
2018-05-10T03:25:38.553Z,12.21
2018-05-10T03:26:54.613Z,12.21
2018-05-10T03:27:35.045Z,12.16
2018-05-10T03:28:34.045Z,12.21
2018-05-10T03:29:32.114Z,12.18
2018-05-10T03:30:53.114Z,12.16
2018-05-10T03:33:25.793Z,12.13
2018-05-10T03:34:03.202Z,12.16
2018-05-10T03:35:03.861Z,12.15
2018-05-10T03:36:06.359Z,12.18
2018-05-10T03:37:25.361Z,12.13
2018-05-10T03:38:04.360Z,12.11
2018-05-10T03:40:35.987Z,12.13
2018-05-10T03:41:37.416Z,12.19
2018-05-10T03:42:35.989Z,12.19
2018-05-10T03:43:57.540Z,12.15
2018-05-10T03:44:56.690Z,12.19
2018-05-10T03:45:57.482Z,12.21
2018-05-10T03:48:10.003Z,12.25
2018-05-10T03:49:09.009Z,12.22
2018-05-10T03:50:08.011Z,12.26
2018-05-10T03:51:29.511Z,12.22
2018-05-10T03:53:39.891Z,12.26
2018-05-10T03:55:00.897Z,12.25
2018-05-10T03:55:39.897Z,12.18
2018-05-10T03:56:40.396Z,12.25
2018-05-10T04:00:44.611Z,12.33
2018-05-10T04:01:44.713Z,12.37
2018-05-10T04:03:07.505Z,12.43
2018-05-10T04:03:45.505Z,12.34
2018-05-10T04:04:45.505Z,12.43
2018-05-10T04:05:53.467Z,12.36
2018-05-10T04:06:46.008Z,12.40
2018-05-10T04:07:46.005Z,12.44
2018-05-10T04:08:46.009Z,12.38
2018-05-10T04:09:46.004Z,12.36
2018-05-10T04:10:45.601Z,12.43
2018-05-10T04:12:07.505Z,12.37
2018-05-10T04:12:52.513Z,12.38
2018-05-10T04:14:10.437Z,12.48
2018-05-10T04:14:48.437Z,12.37
2018-05-10T04:15:48.478Z,12.44
2018-05-10T04:17:09.478Z,12.49
2018-05-10T04:17:47.005Z,12.43
2018-05-10T04:18:47.505Z,12.52
2018-05-10T04:20:08.504Z,12.55
2018-05-10T04:20:47.510Z,12.55
2018-05-10T04:21:48.958Z,12.62
2018-05-10T04:24:40.212Z,12.58
2018-05-10T04:25:18.569Z,12.59
2018-05-10T04:26:41.241Z,12.55
2018-05-10T04:27:40.716Z,12.59
2018-05-10T04:28:40.716Z,12.48
2018-05-10T04:29:19.728Z,12.46
2018-05-10T04:30:19.209Z,12.49
2018-05-10T04:31:42.211Z,12.43
2018-05-10T04:32:22.215Z,12.46
2018-05-10T04:33:42.146Z,12.51
2018-05-10T04:34:41.214Z,12.49
2018-05-10T04:35:29.647Z,12.52
2018-05-10T04:36:20.718Z,12.56
2018-05-10T04:37:20.714Z,12.51
2018-05-10T04:38:20.715Z,12.49
2018-05-10T04:39:21.215Z,12.46
2018-05-10T04:41:54.052Z,12.34
2018-05-10T04:42:52.025Z,12.31
2018-05-10T04:44:15.095Z,12.22
2018-05-10T04:45:07.098Z,12.25
2018-05-10T04:45:59.097Z,12.25
2018-05-10T04:47:14.100Z,12.31
2018-05-10T04:47:52.575Z,12.41
2018-05-10T04:49:14.598Z,12.37
2018-05-10T04:49:55.097Z,12.40
2018-05-10T04:51:01.078Z,12.33
2018-05-10T04:51:53.597Z,12.38
2018-05-10T04:52:54.097Z,12.38
2018-05-10T04:53:54.102Z,12.37
2018-05-10T04:54:54.116Z,12.43
2018-05-10T04:55:54.096Z,12.38
2018-05-10T04:56:57.532Z,12.38
2018-05-10T04:58:21.029Z,12.40
2018-05-10T04:58:55.529Z,12.43
2018-05-10T04:59:58.029Z,12.49
2018-05-10T05:00:55.104Z,12.46
2018-05-10T05:02:16.106Z,12.59
2018-05-10T05:03:16.201Z,12.55
2018-05-10T05:04:16.096Z,12.66
2018-05-10T05:08:18.825Z,12.48
2018-05-10T05:09:20.558Z,12.56
2018-05-10T05:09:58.563Z,12.54
2018-05-10T05:10:58.159Z,12.56
2018-05-10T05:11:59.116Z,12.61
2018-05-10T05:12:59.061Z,12.54
2018-05-10T05:13:59.064Z,12.58
2018-05-10T05:15:20.565Z,12.66
2018-05-10T05:15:58.802Z,12.63
2018-05-10T05:17:00.993Z,12.71
2018-05-10T05:17:59.562Z,12.70
2018-05-10T05:19:21.061Z,12.71
2018-05-10T05:20:14.063Z,12.67
2018-05-10T05:21:00.059Z,12.81
2018-05-10T05:22:00.070Z,12.85
2018-05-10T05:23:00.560Z,12.87
2018-05-10T05:25:31.261Z,12.81
2018-05-10T05:26:31.956Z,12.85
2018-05-10T05:27:31.954Z,12.95
2018-05-10T05:30:03.696Z,13.04
2018-05-10T05:31:03.704Z,13.01
2018-05-10T05:32:03.708Z,13.07
2018-05-10T05:33:04.209Z,13.14
2018-05-10T05:34:25.213Z,13.21
2018-05-10T05:35:04.206Z,13.19
2018-05-10T05:36:04.204Z,13.14
2018-05-10T05:38:35.947Z,13.28
2018-05-10T05:39:35.951Z,13.39
2018-05-10T05:42:07.567Z,13.43
2018-05-10T05:43:09.031Z,13.50
2018-05-10T05:44:07.575Z,13.51
2018-05-10T05:45:07.574Z,13.62
2018-05-10T05:46:30.008Z,13.73
2018-05-10T05:48:42.217Z,13.83
2018-05-10T05:49:43.187Z,13.87
2018-05-10T05:50:40.760Z,13.93
2018-05-10T05:51:42.187Z,14.01
2018-05-10T05:52:41.255Z,13.99
2018-05-10T05:53:41.252Z,14.09
2018-05-10T05:54:41.255Z,14.12
2018-05-10T05:55:43.217Z,14.24
2018-05-10T05:56:41.755Z,14.29
2018-05-10T05:57:41.109Z,14.41
2018-05-10T05:58:41.760Z,14.36
2018-05-10T05:59:42.258Z,14.49
2018-05-10T06:02:15.069Z,14.52
2018-05-10T06:03:13.639Z,14.42
2018-05-10T06:04:28.149Z,14.38
2018-05-10T06:05:14.131Z,14.49
2018-05-10T06:07:52.000Z,14.52
2018-05-10T06:08:46.023Z,14.49
2018-05-10T06:10:08.004Z,14.56
2018-05-10T06:10:46.505Z,14.66
2018-05-10T06:12:07.514Z,14.71
2018-05-10T06:12:46.505Z,14.80
2018-05-10T06:13:46.511Z,14.78
2018-05-10T06:15:08.005Z,14.87
2018-05-10T06:15:47.140Z,14.91
2018-05-10T06:16:47.013Z,15.01
2018-05-10T06:17:47.005Z,15.03
2018-05-10T06:18:46.615Z,15.16
2018-05-10T06:19:47.505Z,15.18
2018-05-10T06:20:47.506Z,15.19
2018-05-10T06:21:47.510Z,15.20
2018-05-10T06:23:09.009Z,15.30
2018-05-10T06:25:19.380Z,15.44
2018-05-10T06:26:19.388Z,15.46
2018-05-10T06:27:40.884Z,15.59
2018-05-10T06:29:51.260Z,15.60
2018-05-10T06:32:22.753Z,15.76
2018-05-10T06:33:22.765Z,15.71
2018-05-10T06:34:22.777Z,15.68
2018-05-10T06:36:54.519Z,15.88
2018-05-10T06:37:56.480Z,15.88
2018-05-10T06:38:54.526Z,16.04
2018-05-10T06:40:09.035Z,15.89
2018-05-10T06:40:55.026Z,15.93
2018-05-10T06:42:16.026Z,16.07
2018-05-10T06:42:55.959Z,16.14
2018-05-10T06:44:16.525Z,16.13
2018-05-10T06:44:55.525Z,16.25
2018-05-10T06:45:55.526Z,16.29
2018-05-10T06:47:16.525Z,16.34
2018-05-10T06:48:03.490Z,16.44
2018-05-10T06:48:56.025Z,16.52
2018-05-10T06:49:56.027Z,16.55
2018-05-10T06:50:56.026Z,16.51
2018-05-10T06:53:27.771Z,16.55
2018-05-10T06:54:27.211Z,16.63
2018-05-10T06:55:27.778Z,16.70
2018-05-10T06:56:27.790Z,16.69
2018-05-10T06:57:28.278Z,16.84
2018-05-10T07:00:59.003Z,16.98
2018-05-10T07:01:59.664Z,17.14
2018-05-10T07:03:00.157Z,17.18
2018-05-10T07:05:31.536Z,17.33
2018-05-10T07:06:31.543Z,17.22
2018-05-10T07:07:31.551Z,17.28
2018-05-10T07:08:33.476Z,17.45
2018-05-10T07:09:32.125Z,17.33
2018-05-10T07:10:32.046Z,17.42
2018-05-10T07:11:32.045Z,17.45
2018-05-10T07:12:52.633Z,17.63
2018-05-10T07:13:32.544Z,17.62
2018-05-10T07:14:32.543Z,17.66
2018-05-10T07:15:33.975Z,17.80
2018-05-10T07:18:04.316Z,17.95
2018-05-10T07:19:04.320Z,18.04
2018-05-10T07:20:04.323Z,18.05
2018-05-10T07:21:04.821Z,18.10
2018-05-10T07:22:04.820Z,18.16
2018-05-10T07:23:04.852Z,18.19
2018-05-10T07:24:04.820Z,18.25
2018-05-10T07:25:05.362Z,18.41
2018-05-10T07:26:04.544Z,18.54
2018-05-10T07:28:36.807Z,18.72
2018-05-10T07:29:36.815Z,18.84
2018-05-10T07:32:08.560Z,18.96
2018-05-10T07:33:08.560Z,19.06
2018-05-10T07:34:08.561Z,18.96
2018-05-10T07:35:09.069Z,19.06
2018-05-10T07:36:15.058Z,18.97
2018-05-10T07:37:09.060Z,19.06
2018-05-10T07:38:11.994Z,19.13
2018-05-10T07:40:40.816Z,19.27
2018-05-10T07:41:41.820Z,19.32
2018-05-10T07:42:40.823Z,19.32
2018-05-10T07:44:02.324Z,19.47
2018-05-10T07:46:12.709Z,19.68
2018-05-10T07:47:12.793Z,19.65
2018-05-10T07:48:12.716Z,19.65
2018-05-10T07:51:05.501Z,19.86
2018-05-10T07:51:46.427Z,19.95
2018-05-10T07:53:05.592Z,20.01
2018-05-10T07:53:44.996Z,20.07
2018-05-10T07:54:44.990Z,20.15
2018-05-10T07:55:44.996Z,20.19
2018-05-10T07:56:44.996Z,20.22
2018-05-10T07:59:16.753Z,20.33
2018-05-10T08:00:22.761Z,20.37
2018-05-10T08:01:16.752Z,20.51
2018-05-10T08:02:19.292Z,20.63
2018-05-10T08:03:18.710Z,20.54
2018-05-10T08:04:17.251Z,20.58
2018-05-10T08:05:17.251Z,20.78
2018-05-10T08:06:17.752Z,20.73
2018-05-10T08:07:40.752Z,20.76
2018-05-10T08:09:49.265Z,20.93
2018-05-10T08:10:50.736Z,20.96
2018-05-10T08:11:49.283Z,21.00
2018-05-10T08:12:49.273Z,20.98
2018-05-10T08:13:51.205Z,21.15
2018-05-10T08:14:49.772Z,21.21
2018-05-10T08:15:49.775Z,21.40
2018-05-10T08:16:49.775Z,21.55
2018-05-10T08:17:52.282Z,21.63
2018-05-10T08:20:44.117Z,21.77
2018-05-10T08:21:23.608Z,21.86
2018-05-10T08:23:53.386Z,21.98
2018-05-10T08:24:53.395Z,21.82
2018-05-10T08:25:53.395Z,21.93
2018-05-10T08:28:46.162Z,21.98
2018-05-10T08:29:25.171Z,22.05
2018-05-10T08:30:25.170Z,22.05
2018-05-10T08:31:24.769Z,22.08
2018-05-10T08:32:52.669Z,22.08
2018-05-10T08:33:25.669Z,22.09
2018-05-10T08:34:25.681Z,22.06
2018-05-10T08:35:47.173Z,22.08
2018-05-10T08:37:58.999Z,21.91
2018-05-10T08:38:57.567Z,21.91
2018-05-10T08:39:57.044Z,21.93
2018-05-10T08:41:00.067Z,21.94
2018-05-10T08:42:00.499Z,21.98
2018-05-10T08:47:32.457Z,22.12
2018-05-10T08:48:55.458Z,22.17
2018-05-10T08:49:32.460Z,22.11
2018-05-10T08:50:33.889Z,22.17
2018-05-10T08:51:32.969Z,21.94
2018-05-10T08:52:53.966Z,22.06
2018-05-10T08:53:32.957Z,21.96
2018-05-10T08:56:25.721Z,21.93
2018-05-10T08:57:04.730Z,22.09
2018-05-10T08:58:04.729Z,22.15
2018-05-10T09:00:57.493Z,22.51
2018-05-10T09:01:42.501Z,22.54
2018-05-10T09:02:36.501Z,22.57
2018-05-10T09:05:08.769Z,22.76
2018-05-10T09:06:08.773Z,22.88
2018-05-10T09:07:08.773Z,22.76
2018-05-10T09:09:40.527Z,22.89
2018-05-10T09:11:00.872Z,23.00
2018-05-10T09:11:40.534Z,23.00
2018-05-10T09:12:41.040Z,23.16
2018-05-10T09:13:41.038Z,23.32
2018-05-10T09:16:12.534Z,23.19
2018-05-10T09:17:12.025Z,23.41
2018-05-10T09:18:13.041Z,23.42
2018-05-10T09:19:14.516Z,23.53
2018-05-10T09:20:27.041Z,23.47
2018-05-10T09:21:13.043Z,23.47
2018-05-10T09:22:36.541Z,23.53
2018-05-10T09:23:36.541Z,23.56
2018-05-10T09:24:34.542Z,23.62
2018-05-10T09:25:15.545Z,23.63
2018-05-10T09:27:45.300Z,23.69
2018-05-10T09:28:45.309Z,23.79
2018-05-10T09:29:45.314Z,23.94
2018-05-10T09:30:45.806Z,23.89
2018-05-10T09:32:12.814Z,23.99
2018-05-10T09:32:45.807Z,24.05
2018-05-10T09:33:45.855Z,24.21
2018-05-10T09:34:46.310Z,24.26
2018-05-10T09:35:48.319Z,24.18
2018-05-10T09:37:07.308Z,24.31
2018-05-10T09:37:46.308Z,24.39
2018-05-10T09:39:07.830Z,24.51
2018-05-10T09:40:07.820Z,24.48
2018-05-10T09:40:46.808Z,24.60
2018-05-10T09:41:46.807Z,24.64
2018-05-10T09:42:53.307Z,24.45
2018-05-10T09:43:47.307Z,24.55
2018-05-10T09:44:47.322Z,24.56
2018-05-10T09:45:47.316Z,24.41
2018-05-10T09:48:19.561Z,24.15
2018-05-10T09:49:19.568Z,24.11
2018-05-10T09:50:40.569Z,24.16
2018-05-10T09:51:20.077Z,24.21
2018-05-10T09:52:42.565Z,24.18
2018-05-10T09:53:20.069Z,24.33
2018-05-10T09:54:20.069Z,24.27
2018-05-10T09:55:41.569Z,24.30
2018-05-10T09:57:51.961Z,24.64
2018-05-10T09:58:51.980Z,24.59
2018-05-10T10:01:26.719Z,24.66
2018-05-10T10:02:23.779Z,24.79
2018-05-10T10:03:44.784Z,24.97
2018-05-10T10:06:16.564Z,24.94
2018-05-10T10:06:55.550Z,24.98
2018-05-10T10:07:55.558Z,25.04
2018-05-10T10:08:56.051Z,24.97
2018-05-10T10:09:56.051Z,25.08
2018-05-10T10:10:56.052Z,25.04
2018-05-10T10:11:56.060Z,25.02
2018-05-10T10:12:57.551Z,25.09
2018-05-10T10:14:17.549Z,25.09
2018-05-10T10:14:56.551Z,24.99
2018-05-10T10:15:56.552Z,25.19
2018-05-10T10:17:18.050Z,25.26
2018-05-10T10:18:18.055Z,25.11
2018-05-10T10:19:18.051Z,25.04
2018-05-10T10:19:57.053Z,25.14
2018-05-10T10:20:57.557Z,25.17
2018-05-10T10:22:18.569Z,25.09
2018-05-10T10:22:57.551Z,25.04
2018-05-10T10:24:00.483Z,24.99
2018-05-10T10:24:58.052Z,25.11
2018-05-10T10:25:58.054Z,25.17
2018-05-10T10:26:58.058Z,25.36
2018-05-10T10:27:58.053Z,25.41
2018-05-10T10:29:19.556Z,25.41
2018-05-10T10:29:58.552Z,25.38
2018-05-10T10:32:30.163Z,25.54
2018-05-10T10:33:30.113Z,25.60
2018-05-10T10:34:52.511Z,25.74
2018-05-10T10:35:50.668Z,25.67
2018-05-10T10:36:30.581Z,25.71
2018-05-10T10:37:36.587Z,25.90
2018-05-10T10:38:30.590Z,25.86
2018-05-10T10:39:54.075Z,25.91
2018-05-10T10:40:54.511Z,25.98
2018-05-10T10:41:52.079Z,26.08
2018-05-10T10:42:31.080Z,26.06
2018-05-10T10:45:02.888Z,25.81
2018-05-10T10:46:02.895Z,25.57
2018-05-10T10:47:02.887Z,25.39
2018-05-10T10:48:03.388Z,25.29
2018-05-10T10:50:34.377Z,24.99
2018-05-10T10:51:56.324Z,24.99
2018-05-10T10:52:35.323Z,24.98
2018-05-10T10:53:35.323Z,24.79
2018-05-10T10:54:35.326Z,24.55
2018-05-10T10:55:35.828Z,24.49
2018-05-10T10:56:35.828Z,24.39
2018-05-10T10:57:35.822Z,24.19
2018-05-10T10:58:35.823Z,24.14
2018-05-10T10:59:57.426Z,23.89
2018-05-10T11:00:57.330Z,24.00
2018-05-10T11:01:36.412Z,24.00
2018-05-10T11:02:36.323Z,23.99
2018-05-10T11:05:08.092Z,24.30
2018-05-10T11:06:08.099Z,24.46
2018-05-10T11:07:08.103Z,24.60
2018-05-10T11:08:10.031Z,24.87
2018-05-10T11:09:08.662Z,24.87
2018-05-10T11:13:11.588Z,25.01
2018-05-10T11:14:12.529Z,25.16
2018-05-10T11:15:11.600Z,25.19
2018-05-10T11:17:43.371Z,25.38
2018-05-10T11:18:43.372Z,25.48
2018-05-10T11:20:04.372Z,25.64
2018-05-10T11:21:04.894Z,25.66
2018-05-10T11:24:46.744Z,26.19
2018-05-10T11:25:52.744Z,26.41
2018-05-10T11:26:46.742Z,26.41
2018-05-10T11:27:53.244Z,26.34
2018-05-10T11:28:47.244Z,26.57
2018-05-10T11:29:47.244Z,26.59
2018-05-10T11:30:47.244Z,26.53
2018-05-10T11:33:19.136Z,26.23
2018-05-10T11:34:19.038Z,26.32
2018-05-10T11:35:19.042Z,26.60
2018-05-10T11:36:19.535Z,26.94
2018-05-10T11:37:18.811Z,27.21
2018-05-10T11:38:19.546Z,27.27
2018-05-10T11:39:20.535Z,27.52
2018-05-10T11:40:20.037Z,27.74
2018-05-10T11:41:34.038Z,27.81
2018-05-10T11:42:20.039Z,27.99
2018-05-10T11:43:20.042Z,28.08
2018-05-10T11:44:20.539Z,28.32
2018-05-10T11:45:20.543Z,28.42
2018-05-10T11:46:43.008Z,28.01
2018-05-10T11:47:20.537Z,27.72
2018-05-10T11:48:22.491Z,27.15
2018-05-10T11:49:22.019Z,26.81
2018-05-10T11:50:21.039Z,26.65
2018-05-10T11:51:21.039Z,26.81
2018-05-10T11:52:44.536Z,26.64
2018-05-10T11:53:42.539Z,26.46
2018-05-10T11:54:21.540Z,26.17
2018-05-10T11:55:23.000Z,26.06
2018-05-10T11:56:23.471Z,25.96
2018-05-10T11:57:23.546Z,25.81
2018-05-10T11:58:22.044Z,26.09
2018-05-10T11:59:43.045Z,26.47
2018-05-10T12:00:22.543Z,27.09
2018-05-10T12:01:29.971Z,27.35
2018-05-10T12:02:28.575Z,27.27
2018-05-10T12:03:22.541Z,27.13
2018-05-10T12:04:24.514Z,27.28
2018-05-10T12:05:23.040Z,27.58
2018-05-10T12:06:29.079Z,28.13
2018-05-10T12:08:54.736Z,27.93
2018-05-10T12:09:56.156Z,27.68
2018-05-10T12:10:54.724Z,27.43
2018-05-10T12:13:26.999Z,27.52
2018-05-10T12:14:27.009Z,27.84
2018-05-10T12:15:41.020Z,27.72
2018-05-10T12:16:26.484Z,28.02
2018-05-10T12:17:27.508Z,27.93
2018-05-10T12:18:48.508Z,28.24
2018-05-10T12:19:27.507Z,28.11
2018-05-10T12:20:29.513Z,28.28
2018-05-10T12:21:30.439Z,27.80
2018-05-10T12:22:49.010Z,27.61
2018-05-10T12:23:28.007Z,27.27
2018-05-10T12:24:29.439Z,27.01
2018-05-10T12:25:28.612Z,26.90
2018-05-10T12:26:31.443Z,26.20
2018-05-10T12:29:01.462Z,24.97
2018-05-10T12:30:01.460Z,24.59
2018-05-10T12:31:06.040Z,24.49
2018-05-10T12:33:54.762Z,24.23
2018-05-10T12:34:52.823Z,24.49
2018-05-10T12:35:31.826Z,24.52
2018-05-10T12:36:53.323Z,24.67
2018-05-10T12:37:52.554Z,24.84
2018-05-10T12:38:53.323Z,24.67
2018-05-10T12:39:53.332Z,24.68
2018-05-10T12:41:00.822Z,24.37
2018-05-10T12:41:38.881Z,24.26
2018-05-10T12:42:32.826Z,24.09
2018-05-10T12:43:32.824Z,24.00
2018-05-10T12:46:04.580Z,23.53
2018-05-10T12:47:04.598Z,23.38
2018-05-10T12:48:05.095Z,23.19
2018-05-10T12:49:04.196Z,23.04
2018-05-10T12:50:26.091Z,22.84
2018-05-10T12:51:05.091Z,22.76
2018-05-10T12:52:05.118Z,22.57
2018-05-10T12:53:05.595Z,22.63
2018-05-10T12:54:05.591Z,22.44
2018-05-10T12:55:05.592Z,22.33
2018-05-10T12:56:05.692Z,22.31
2018-05-10T12:57:27.085Z,22.38
2018-05-10T12:58:06.102Z,22.29
2018-05-10T12:59:06.104Z,22.20
2018-05-10T13:00:26.550Z,22.20
2018-05-10T13:01:06.592Z,22.35
2018-05-10T13:02:06.595Z,22.35
2018-05-10T13:03:12.593Z,22.48
2018-05-10T13:04:06.619Z,22.35
2018-05-10T13:05:07.091Z,22.36
2018-05-10T13:06:06.323Z,22.23
2018-05-10T13:07:07.091Z,22.08
2018-05-10T13:08:07.093Z,21.93
2018-05-10T13:09:07.591Z,21.96
2018-05-10T13:10:07.591Z,21.99
2018-05-10T13:11:07.592Z,22.05
2018-05-10T13:12:07.592Z,21.89
2018-05-10T13:13:09.052Z,21.85
2018-05-10T13:14:28.266Z,21.82
2018-05-10T13:15:08.093Z,21.82
2018-05-10T13:16:08.104Z,21.74
2018-05-10T13:17:08.092Z,21.81
2018-05-10T13:18:08.591Z,21.83
2018-05-10T13:19:08.616Z,21.83
2018-05-10T13:20:08.592Z,21.73
2018-05-10T13:21:08.593Z,21.68
2018-05-10T13:22:32.095Z,21.55
2018-05-10T13:23:09.099Z,21.43
2018-05-10T13:24:09.095Z,21.34
2018-05-10T13:25:09.094Z,21.40
2018-05-10T13:26:09.595Z,21.24
2018-05-10T13:27:36.592Z,21.24
2018-05-10T13:28:09.597Z,21.24
2018-05-10T13:29:09.596Z,21.22
2018-05-10T13:30:31.099Z,21.21
2018-05-10T13:31:11.025Z,21.03
2018-05-10T13:32:10.093Z,20.96
2018-05-10T13:33:31.093Z,20.96
2018-05-10T13:35:42.355Z,20.72
2018-05-10T13:36:42.355Z,20.71
2018-05-10T13:37:42.355Z,20.58
2018-05-10T13:43:16.971Z,19.95
2018-05-10T13:45:16.977Z,19.76
2018-05-10T13:46:40.452Z,19.60
2018-05-10T13:47:17.641Z,19.53
2018-05-10T13:48:38.479Z,19.49
2018-05-10T13:49:31.479Z,19.31
2018-05-10T13:50:38.988Z,19.46
2018-05-10T13:51:17.978Z,19.45
2018-05-10T13:52:17.979Z,19.40
2018-05-10T13:53:17.981Z,19.27
2018-05-10T13:54:18.479Z,19.17
2018-05-10T13:55:20.479Z,19.15
2018-05-10T13:56:18.485Z,19.15
2018-05-10T13:57:18.478Z,19.10
2018-05-10T13:58:18.987Z,19.06
2018-05-10T13:59:24.979Z,18.96
2018-05-10T14:00:32.980Z,18.94
2018-05-10T14:01:18.979Z,18.91
2018-05-10T14:02:19.554Z,18.90
2018-05-10T14:03:20.480Z,18.94
2018-05-10T14:04:18.823Z,18.97
2018-05-10T14:05:19.480Z,18.97
2018-05-10T14:06:19.982Z,19.09
2018-05-10T14:07:19.983Z,19.02
2018-05-10T14:08:19.979Z,19.09
2018-05-10T14:09:19.979Z,19.09
2018-05-10T14:10:20.483Z,19.28
2018-05-10T14:11:20.479Z,19.15
2018-05-10T14:12:40.821Z,19.16
2018-05-10T14:13:20.479Z,19.20
2018-05-10T14:14:20.980Z,19.28
2018-05-10T14:15:41.982Z,19.30
2018-05-10T14:16:20.987Z,19.34
2018-05-10T14:17:20.990Z,19.40
2018-05-10T14:18:41.565Z,19.46
2018-05-10T14:19:21.483Z,19.45
2018-05-10T14:20:27.479Z,19.50
2018-05-10T14:21:21.480Z,19.53
2018-05-10T14:22:22.912Z,19.50
2018-05-10T14:23:21.979Z,19.53
2018-05-10T14:24:21.978Z,19.62
2018-05-10T14:25:22.046Z,19.61
2018-05-10T14:26:43.484Z,19.78
2018-05-10T14:27:24.482Z,19.92
2018-05-10T14:28:43.480Z,19.89
2018-05-10T14:29:22.479Z,19.85
2018-05-10T14:30:23.067Z,19.97
2018-05-10T14:31:22.980Z,20.17
2018-05-10T14:34:15.480Z,20.26
2018-05-10T14:34:54.484Z,20.23
2018-05-10T14:35:54.487Z,20.37
2018-05-10T14:39:57.687Z,20.57
2018-05-10T14:40:57.692Z,20.66
2018-05-10T14:42:18.692Z,20.83
2018-05-10T14:42:58.201Z,20.53
2018-05-10T14:44:19.201Z,20.66
2018-05-10T14:48:22.203Z,21.03
2018-05-10T14:49:01.218Z,21.06
2018-05-10T14:50:01.208Z,20.91
2018-05-10T14:51:06.154Z,20.85
2018-05-10T14:53:33.096Z,20.61
2018-05-10T14:54:33.127Z,20.75
2018-05-10T14:55:33.106Z,20.75
2018-05-10T14:59:58.115Z,20.72
2018-05-10T15:00:58.111Z,20.73
2018-05-10T15:03:30.729Z,20.81
2018-05-10T15:04:08.769Z,20.79
2018-05-10T15:05:08.771Z,20.91
2018-05-10T15:07:46.523Z,21.43
2018-05-10T15:08:40.530Z,21.58
2018-05-10T15:09:40.530Z,22.19
2018-05-10T15:10:43.031Z,22.54
2018-05-10T15:12:02.034Z,22.44
2018-05-10T15:12:41.030Z,22.56
2018-05-10T15:13:41.031Z,22.19
2018-05-10T15:14:41.536Z,22.15
2018-05-10T15:15:41.594Z,21.98
2018-05-10T15:18:13.045Z,21.63
2018-05-10T15:19:13.052Z,21.46
2018-05-10T15:20:13.057Z,21.43
2018-05-10T15:21:36.552Z,21.36
2018-05-10T15:22:36.552Z,21.30
2018-05-10T15:23:13.552Z,20.98
2018-05-10T15:24:13.552Z,20.93
2018-05-10T15:26:46.767Z,20.81
2018-05-10T15:28:12.334Z,20.58
2018-05-10T15:28:45.336Z,20.60
2018-05-10T15:31:07.834Z,20.51